Tiempo atmosférico en la estación meteorológica de Villanueva De Los Infantes, Ciudad Real (870 m.)



Fecha
DESCASC
Temp. máxima en grados centígrados (hora)
DESCASC
Temp. mínima en grados centígrados (hora)
DESCASC
Temp. media en grados centígrados
DESCASC
Racha de viento máxima en m/sg (hora)
DESCASC
Velocidad máxima media en intervalos de 10 minutos(hora)
DESCASC
Precipitaciones diarias en mm
DESCASC
Precipitaciones de 00:00 a 06:00 en mm
DESCASC
Precipitaciones de 06:00 a 12:00 en mm
DESCASC
Precipitaciones de 12:00 a 18:00 en mm
DESCASC
Precipitaciones de 18:00 a 24:00 en mm
DESCASC
17-09-2020 28.2 (16:20) 17.3 (04:10) 22.8 15.28 (20:00) 10.28 (20:00) 1.8 0.4 0 0 1.4
16-09-2020 31.8 (16:50) 17.1 (07:40) 24.4 8.89 (22:40) 4.44 (22:40) 0 0 0 0 0
15-09-2020 30.7 (16:20) 17 (07:00) 23.9 8.06 (17:50) 4.44 (16:30) 0 0 0 0 0
14-09-2020 33 (15:50) 16.3 (00:00) 24.6 12.22 (20:30) 6.94 (18:10) 0 0 0 0 0
13-09-2020 33.3 (15:20) 18.1 (00:00) 25.7 10.83 (18:00) 6.11 (19:20) 0 0 0 0 0
12-09-2020 34 (16:40) 16.5 (00:00) 25.3 9.72 (21:10) 6.67 (21:10) 0 0 0 0 0
11-09-2020 32.2 (16:40) 16.9 (00:00) 24.6 7.22 (22:50) 5.83 (23:00) 0 0 0 0 0
10-09-2020 28.8 (16:30) 16.1 (00:00) 22.4 9.17 (15:20) 5 (15:10) 0 0 0 0 0
09-09-2020 28.2 (16:30) 13.3 (00:00) 20.8 8.33 (18:10) 5.83 (05:50) 0 0 0 0 0
08-09-2020 29.1 (17:00) 12.7 (00:00) 20.9 13.61 (02:40) 9.17 (19:50) 0 0 0 0 0
07-09-2020 27.2 (15:20) 16.2 (08:00) 21.7 9.17 (15:50) 6.39 (23:59) 0 0 0 0 0
06-09-2020 33.4 (15:40) 16.8 (00:00) 25.1 8.06 (21:00) 6.11 (21:10) 0 0 0 0 0
05-09-2020 33.3 (18:00) 15.1 (00:00) 24.2 10.83 (16:40) 8.33 (20:20) 0 0 0 0 0
04-09-2020 32.6 (17:40) 15.5 (00:00) 24 7.78 (08:20) 6.11 (08:20) 0 0 0 0 0
03-09-2020 31.8 (17:40) 14.8 (00:00) 23.3 11.39 (20:50) 8.61 (20:10) 0 0 0 0 0
02-09-2020 29.4 (15:40) 13.4 (00:00) 21.4 7.78 (18:50) 4.44 (17:40) 0 0 0 0 0
01-09-2020 28.1 (16:00) 13.2 (00:00) 20.7 10 (16:20) 6.39 (00:40) 0 0 0 0 0
31-08-2020 27.8 (16:50) 11.2 (00:00) 19.5 8.61 (02:40) 6.67 (04:10) 0 0 0 0 0
30-08-2020 23.2 (16:50) 9.5 (00:00) 16.4 8.61 (15:10) 5.56 (23:20) 0 0 0 0 0
29-08-2020 23 (16:20) 13.6 (00:00) 18.3 11.39 (16:50) 6.11 (12:40) 0 0 0 0 0
28-08-2020 32.1 (15:00) 18.4 (00:00) 25.2 13.33 (17:00) 7.5 (16:20) 0 0 0 0 0
27-08-2020 37.6 (16:10) 20.4 (00:00) 29 9.17 (19:40) 6.39 (20:00) 0 0 0 0 0
26-08-2020 37.6 (16:20) 19.5 (00:00) 28.5 7.22 (18:10) 3.89 (17:20) 0 0 0 0 0
25-08-2020 36.8 (17:10) 18.5 (00:00) 27.6 7.22 (13:20) 3.89 (10:50) 0 0 0 0 0
24-08-2020 35.9 (18:10) 16.8 (00:00) 26.4 8.33 (14:10) 5 (11:30) 0 0 0 0 0
23-08-2020 35 (17:20) 18.7 (00:00) 26.9 6.39 (14:00) 4.17 (21:30) 0 0 0 0 0
22-08-2020 34.4 (18:10) 20 (00:00) 27.2 6.67 (17:50) 3.61 (16:10) 0 0 0 0 0
21-08-2020 35.6 (17:10) 17.1 (00:00) 26.3 11.11 (16:20) 7.22 (19:10) 0 0 0 0 0
20-08-2020 35.7 (16:30) 18.3 (00:00) 27 12.5 (18:10) 8.61 (18:10) 0 0 0 0 0

Gráficas

Temp. máximas Temp. mínimas Temp. medias Precipitaciones Rachas de viento máximas Velocidades máximas media en intervalos de 10 minutos

Datos horarios

Fecha y hora oficial Temperatura (ºC) Velocidad del viento (km/h) Dirección del viento Racha (km/h) Dirección de racha Precipitación (mm) Presión (hPa) Tendencia (hPa) Humedad (%)
2020-09-18 23:00:00 -- -- -- -- -- -- -- -- --
2020-09-18 22:00:00 14.2 6 Sudeste 13 Sudeste 0 -- -- 91
2020-09-18 21:00:00 14.2 4 Sur 10 Sur 0 -- -- 88
2020-09-18 20:00:00 14.5 10 Nordeste 15 Norte 0.2 -- -- 91
2020-09-18 19:00:00 15 7 Nordeste 23 Norte 0 -- -- 90
2020-09-18 18:00:00 15.4 15 Norte 38 Sudoeste 0.6 -- -- 82
2020-09-18 17:00:00 19.2 24 Sur 53 Sudoeste -- -- -- 76
2020-09-18 16:00:00 24.1 24 Sudoeste 42 Sudoeste 0 -- -- 47
2020-09-18 15:00:00 22.9 10 Este 27 Nordeste 0 -- -- 53
2020-09-18 14:00:00 19.4 12 Nordeste 36 Noroeste 0 -- -- 64
2020-09-18 13:00:00 21.5 14 Sur 24 Sudoeste 0 -- -- 56
2020-09-18 12:00:00 19.8 2 Sudeste 27 Sur 0 -- -- 65
2020-09-18 11:00:00 18.8 14 Sudoeste 30 Sur 0 -- -- 68
2020-09-18 10:00:00 17.8 14 Sur 26 Sur 0 -- -- 71
2020-09-18 09:00:00 16.7 16 Sur 23 Sudoeste 0 -- -- 74
2020-09-18 08:00:00 16.3 11 Sur 38 Sur 0 -- -- 74
2020-09-18 07:00:00 16.5 20 Sudoeste 47 Sur 0 -- -- 73
2020-09-18 06:00:00 16.9 33 Sur 51 Sur 0 -- -- 68
2020-09-18 05:00:00 17.9 30 Sur 58 Sudoeste 0 -- -- 63
2020-09-18 04:00:00 18.2 31 Sur 53 Sur 0 -- -- 61
2020-09-18 03:00:00 18.1 26 Sur 46 Sur 0 -- -- 64
2020-09-18 02:00:00 18.1 28 Sur 42 Sur 0 -- -- 65
2020-09-18 01:00:00 19 22 Sudoeste 43 Sur 0 -- -- 61
2020-09-18 00:00:00 19.2 12 Sudoeste 27 Sudoeste 0 -- -- 70
2020-09-17 23:00:00 19 8 Sur 19 Sudeste 0 -- -- 82
2020-09-17 22:00:00 18.6 10 Sudeste 21 Sudeste 0 -- -- 81
2020-09-17 21:00:00 19.3 6 Sudeste 30 Oeste 1 -- -- 79
2020-09-17 20:00:00 22.2 37 Sudoeste 55 Sudoeste 0.4 -- -- 66
2020-09-17 19:00:00 25.9 13 Sudoeste 29 Sudoeste 0 -- -- 41
2020-09-17 18:00:00 27.5 15 Sudoeste 40 Sudoeste 0 -- -- 39
2020-09-17 17:00:00 28.2 26 Sudoeste 41 Sudoeste 0 -- -- 39
2020-09-17 16:00:00 26.9 17 Sudoeste 37 Sudoeste 0 -- -- 43
2020-09-17 15:00:00 25 23 Sudoeste 44 Sudoeste 0 -- -- 46
2020-09-17 14:00:00 25.4 21 Sudoeste 34 Sudoeste 0 -- -- 47
2020-09-17 13:00:00 22.8 16 Sudoeste 27 Sudoeste 0 -- -- 55
2020-09-17 12:00:00 21.7 10 Sur 20 Sur 0 -- -- 59
2020-09-17 11:00:00 21 12 Sur 20 Sur 0 -- -- 63
2020-09-17 10:00:00 20.8 6 Sudoeste 17 Sur 0 -- -- 65
2020-09-17 09:00:00 19.6 9 Sur 14 Sur 0 -- -- 70
2020-09-17 08:00:00 18.7 9 Sur 14 Sur 0 -- -- 74
2020-09-17 07:00:00 18.5 3 Sur 13 Sudeste 0 -- -- 77
2020-09-17 06:00:00 18.3 6 Sudeste 19 Sudeste 0.2 -- -- 76
2020-09-17 05:00:00 17.8 9 Sudeste 21 Sur 0 -- -- 78
2020-09-17 04:00:00 17.4 9 Sudeste 20 Este 0 -- -- 80
2020-09-17 03:00:00 18 12 Sudeste 22 Sudeste 0.2 -- -- 80
2020-09-17 02:00:00 19.8 6 Sudoeste 19 Oeste 0 -- -- 68
2020-09-17 01:00:00 22.3 19 Oeste 40 Noroeste 0 -- -- 53
2020-09-17 00:00:00 24.2 15 Sudoeste 23 Sudoeste 0 -- -- 42
2020-09-16 23:00:00 24.6 9 Sudoeste 32 Sur 0 -- -- 40
2020-09-16 22:00:00 25.2 12 Sur 25 Sudoeste 0 -- -- 39
2020-09-16 21:00:00 25.5 10 Sudeste 24 Sudeste 0 -- -- 37
2020-09-16 20:00:00 27.7 8 Sur 23 Sur 0 -- -- 31
2020-09-16 19:00:00 29.4 9 Oeste 21 Sudoeste 0 -- -- 29
2020-09-16 18:00:00 30.8 13 Sudoeste 22 Sudoeste 0 -- -- 28
2020-09-16 17:00:00 31 6 Sudeste 19 Oeste 0 -- -- 28
2020-09-16 16:00:00 31.6 8 Sudeste 19 Sudoeste 0 -- -- 28
2020-09-16 15:00:00 31.3 5 Noroeste 22 Sudoeste 0 -- -- 30
2020-09-16 14:00:00 30.6 9 Sudoeste 26 Sur 0 -- -- 32
2020-09-16 13:00:00 29 5 Sur 22 Sur 0 -- -- 37
2020-09-16 12:00:00 26.9 5 Sur 16 Sur 0 -- -- 44
2020-09-16 11:00:00 23.6 9 Sur 15 Sudoeste 0 -- -- 50
2020-09-16 10:00:00 20.6 6 Sur 12 Sur 0 -- -- 60
2020-09-16 09:00:00 17.9 6 Sur 9 Sur 0 -- -- 67
2020-09-16 08:00:00 17.1 6 Sur 10 Sur 0 -- -- 67
2020-09-16 07:00:00 17.6 6 Sur 10 Sur 0 -- -- 65
2020-09-16 06:00:00 18.3 5 Sur 8 Sur 0 -- -- 61
2020-09-16 05:00:00 18.7 5 Sur 7 Sur 0 -- -- 60
2020-09-16 04:00:00 19.2 5 Sur 10 Sur 0 -- -- 56
2020-09-16 03:00:00 19.8 5 Sudoeste 9 Oeste 0 -- -- 54
2020-09-16 02:00:00 20 7 Sur 9 Sur 0 -- -- 47
2020-09-16 01:00:00 21.3 6 Nordeste 10 Sudeste 0 -- -- 43
2020-09-16 00:00:00 22.4 4 Sudoeste 7 Oeste 0 -- -- 44
2020-09-15 23:00:00 23 3 Sur 5 Noroeste 0 -- -- 41
2020-09-15 22:00:00 24.6 4 Oeste 11 Oeste 0 -- -- 35
2020-09-15 21:00:00 25.6 7 Oeste 13 Oeste 0 -- -- 33
2020-09-15 20:00:00 27.5 9 Oeste 24 Oeste 0 -- -- 30
2020-09-15 19:00:00 28.7 12 Oeste 29 Sudoeste 0 -- -- 31
2020-09-15 18:00:00 29.7 13 Oeste 29 Oeste 0 -- -- 31
2020-09-15 17:00:00 30 6 Sudoeste 28 Oeste 0 -- -- 34
2020-09-15 16:00:00 29.8 10 Sudoeste 25 Sudoeste 0 -- -- 36
2020-09-15 15:00:00 29.2 10 Sudoeste 23 Oeste 0 -- -- 38
2020-09-15 14:00:00 28.1 7 Sudoeste 17 Sudoeste 0 -- -- 45
2020-09-15 13:00:00 25.5 4 Oeste 13 Sur 0 -- -- 54
2020-09-15 12:00:00 23.8 4 Oeste 15 Sur 0 -- -- 59
2020-09-15 11:00:00 21.8 3 Sudoeste 15 Sudoeste 0 -- -- 68
2020-09-15 10:00:00 19.7 7 Sur 14 Sur 0 -- -- 78
2020-09-15 09:00:00 17.7 3 Sur 10 Sudoeste 0 -- -- 77
2020-09-15 08:00:00 17.2 4 Sur 10 Sudeste 0 -- -- 76
2020-09-15 07:00:00 17 6 Sur 10 Sudeste 0 -- -- 71
2020-09-15 06:00:00 17.4 4 Sur 9 Sur 0 -- -- 68
2020-09-15 05:00:00 18.1 4 Sur 11 Sudoeste 0 -- -- 65
2020-09-15 04:00:00 17.9 8 Sur 15 Sur 0 -- -- 59
2020-09-15 03:00:00 19.2 7 Sur 18 Sur 0 -- -- 54
2020-09-15 02:00:00 19.2 11 Sur 17 Sur 0 -- -- 60
2020-09-15 01:00:00 19.5 6 Sur 14 Sur 0 -- -- 54
2020-09-15 00:00:00 20.6 7 Sur 13 Sur 0 -- -- 50
2020-09-14 23:00:00 21.4 7 Sur 18 Sudeste 0 -- -- 47
2020-09-14 22:00:00 22.1 7 Sudeste 21 Sur 0 -- -- 47
2020-09-14 21:00:00 24.5 10 Sudeste 44 Sudeste 0 -- -- 42
2020-09-14 20:00:00 26.5 10 Sudeste 18 Sudeste 0 -- -- 34
2020-09-14 19:00:00 27.8 18 Oeste 37 Sudoeste 0 -- -- 31
2020-09-14 18:00:00 29.3 25 Oeste 36 Sudoeste 0 -- -- 27
2020-09-14 17:00:00 31.5 15 Oeste 27 Sudoeste 0 -- -- 24
2020-09-14 16:00:00 32.9 9 Sur 19 Sur 0 -- -- 21
2020-09-14 15:00:00 31.8 9 Sur 21 Sur 0 -- -- 22
2020-09-14 14:00:00 30 9 Sudoeste 17 Sudoeste 0 -- -- 24
2020-09-14 13:00:00 28.7 6 Sudoeste 13 Sudoeste 0 -- -- 26
2020-09-14 12:00:00 28.2 6 Sur 21 Sur 0 -- -- 27
2020-09-14 11:00:00 25.8 9 Sur 22 Sur 0 -- -- 31
2020-09-14 10:00:00 22.2 9 Sur 18 Sudeste 0 -- -- 40
2020-09-14 09:00:00 18.7 7 Sudeste 14 Sudeste 0 -- -- 49
2020-09-14 08:00:00 16.5 8 Sudeste 18 Sudeste 0 -- -- 53
2020-09-14 07:00:00 16.8 9 Sudeste 13 Sudeste 0 -- -- 52
2020-09-14 06:00:00 16.6 7 Sudeste 11 Sudeste 0 -- -- 53
2020-09-14 05:00:00 17.2 4 Sudeste 11 Sur 0 -- -- 52
2020-09-14 04:00:00 17.6 7 Sur 13 Sur 0 -- -- 51
2020-09-14 03:00:00 18 8 Sur 16 Sur 0 -- -- 51
2020-09-14 02:00:00 18.4 6 Sudeste 18 Sudeste 0 -- -- 50
2020-09-14 01:00:00 19.9 8 Sur 21 Sudeste 0 -- -- 48
2020-09-14 00:00:00 21.1 12 Sudeste 22 Sudeste 0 -- -- 49
2020-09-13 23:00:00 21.3 9 Sudeste 15 Sudeste 0 -- -- 49
2020-09-13 22:00:00 22.5 8 Sudeste 18 Sudeste 0 -- -- 45
2020-09-13 21:00:00 24.6 12 Sudeste 29 Este 0 -- -- 39
2020-09-13 20:00:00 26.6 18 Sudeste 33 Este 0 -- -- 34
2020-09-13 19:00:00 28 20 Sudeste 32 Este 0 -- -- 30
2020-09-13 18:00:00 30.6 19 Sudeste 39 Este 0 -- -- 26
2020-09-13 17:00:00 32.8 9 Sur 32 Sudeste 0 -- -- 23
2020-09-13 16:00:00 32.2 10 Sudeste 32 Sudeste 0 -- -- 23
2020-09-13 15:00:00 32.2 11 Sudeste 30 Sudeste 0 -- -- 23
2020-09-13 14:00:00 32.3 13 Sur 30 Sur 0 -- -- 23
2020-09-13 13:00:00 32 10 Sudeste 27 Sur 0 -- -- 24
2020-09-13 12:00:00 30.1 11 Sudeste 24 Sur 0 -- -- 25
2020-09-13 11:00:00 27.1 8 Sudeste 23 Este 0 -- -- 28
2020-09-13 10:00:00 23.5 13 Sudeste 21 Sudeste 0 -- -- 36
2020-09-13 09:00:00 19.7 9 Sudeste 19 Sudeste 0 -- -- 42
2020-09-13 08:00:00 18.2 7 Sudeste 15 Sudeste 0 -- -- 46
2020-09-13 07:00:00 18.6 8 Sudeste 15 Sudeste 0 -- -- 46
2020-09-13 06:00:00 18.6 10 Sudeste 16 Sudeste 0 -- -- 47
2020-09-13 05:00:00 18.6 7 Sudeste 16 Sudoeste 0 -- -- 50
2020-09-13 04:00:00 19.7 5 Sur 16 Sur 0 -- -- 48
2020-09-13 03:00:00 20.3 7 Sur 24 Sur 0 -- -- 47
2020-09-13 02:00:00 21 10 Sur 21 Sudeste 0 -- -- 46
2020-09-13 01:00:00 21.5 12 Sudeste 22 Sudeste 0 -- -- 47
2020-09-13 00:00:00 21.9 13 Sudeste 25 Este 0 -- -- 46
2020-09-12 23:00:00 23.2 14 Sudeste 27 Este 0 -- -- 42
2020-09-12 22:00:00 24.5 18 Este 35 Este 0 -- -- 40
2020-09-12 21:00:00 26.6 24 Este 35 Este 0 -- -- 35
2020-09-12 20:00:00 29.2 16 Nordeste 25 Nordeste 0 -- -- 28
2020-09-12 19:00:00 31 6 Norte 18 Nordeste 0 -- -- 23
2020-09-12 18:00:00 31.7 11 Norte 17 Noroeste 0 -- -- 22
2020-09-12 17:00:00 33.7 4 Sur 16 Sudoeste 0 -- -- 21
2020-09-12 16:00:00 32.7 6 Este 14 Este 0 -- -- 22
2020-09-12 15:00:00 31 8 Nordeste 21 Norte 0 -- -- 25
2020-09-12 14:00:00 31.4 6 Sudeste 17 Sur 0 -- -- 26
2020-09-12 13:00:00 30.6 4 Sur 15 Sur 0 -- -- 28
2020-09-12 12:00:00 28.6 8 Sur 16 Sur 0 -- -- 30
2020-09-12 11:00:00 25.1 8 Sur 15 Sur 0 -- -- 37
2020-09-12 10:00:00 21.8 7 Sur 12 Sur 0 -- -- 44
2020-09-12 09:00:00 18.7 5 Sur 12 Sur 0 -- -- 53
2020-09-12 08:00:00 16.5 7 Sur 11 Sur 0 -- -- 57
2020-09-12 07:00:00 17.2 7 Sur 12 Sudeste 0 -- -- 53
2020-09-12 06:00:00 17 5 Sudeste 10 Sur 0 -- -- 54
2020-09-12 05:00:00 17.7 5 Sur 9 Sur 0 -- -- 49
2020-09-12 04:00:00 18.9 5 Sur 12 Sur 0 -- -- 48
2020-09-12 03:00:00 19.9 5 Sudeste 10 Sudeste 0 -- -- 47
2020-09-12 02:00:00 20.5 8 Sudeste 14 Sudeste 0 -- -- 45
2020-09-12 01:00:00 21.3 8 Sudeste 15 Sudeste 0 -- -- 43
2020-09-12 00:00:00 22 9 Sudeste 26 Este 0 -- -- 41
2020-09-11 23:00:00 22.9 21 Este 26 Este 0 -- -- 33
2020-09-11 22:00:00 23.8 15 Este 18 Este 0 -- -- 31
2020-09-11 21:00:00 24.9 12 Este 19 Nordeste 0 -- -- 29
2020-09-11 20:00:00 28.3 2 Norte 11 Noroeste 0 -- -- 24
2020-09-11 19:00:00 29.7 6 Norte 12 Noroeste 0 -- -- 24
2020-09-11 18:00:00 30 5 Nordeste 13 Oeste 0 -- -- 23
2020-09-11 17:00:00 31 4 Oeste 22 Sudoeste 0 -- -- 22
2020-09-11 16:00:00 31.5 8 Sur 22 Sudoeste 0 -- -- 22
2020-09-11 15:00:00 31.3 9 Sudeste 21 Sudoeste 0 -- -- 23
2020-09-11 14:00:00 29.9 8 Sudeste 16 Sudoeste 0 -- -- 25
2020-09-11 13:00:00 28.9 9 Sudoeste 18 Sur 0 -- -- 28
2020-09-11 12:00:00 26.9 5 Sudoeste 17 Sudoeste 0 -- -- 32
2020-09-11 11:00:00 23.7 8 Sudoeste 17 Sudoeste 0 -- -- 41
2020-09-11 10:00:00 20.6 6 Sur 13 Sur 0 -- -- 51
2020-09-11 09:00:00 18.6 6 Sur 11 Sur 0 -- -- 53
2020-09-11 08:00:00 16.9 6 Sudeste 9 Sur 0 -- -- 56
2020-09-11 07:00:00 17.5 6 Sur 9 Sur 0 -- -- 55
2020-09-11 06:00:00 18.1 5 Sur 9 Sur 0 -- -- 51
2020-09-11 05:00:00 19.4 6 Sur 15 Sudoeste 0 -- -- 46
2020-09-11 04:00:00 18.6 5 Sudeste 8 Sudeste 0 -- -- 50
2020-09-11 03:00:00 17.9 6 Sudeste 9 Sudeste 0 -- -- 48
2020-09-11 02:00:00 17.8 4 Sur 20 Sur 0 -- -- 44
2020-09-11 01:00:00 19.5 6 Sudeste 13 Sur 0 -- -- 39
2020-09-11 00:00:00 21.2 7 Este 14 Este 0 -- -- 36
2020-09-10 23:00:00 21.9 15 Este 20 Este 0 -- -- 35
2020-09-10 22:00:00 22 15 Este 18 Este 0 -- -- 33
2020-09-10 21:00:00 22.8 10 Nordeste 14 Norte 0 -- -- 30
2020-09-10 20:00:00 25.7 10 Nordeste 21 Nordeste 0 -- -- 28
2020-09-10 19:00:00 27 10 Norte 25 Noroeste 0 -- -- 26
2020-09-10 18:00:00 27.9 11 Norte 28 Norte 0 -- -- 26
2020-09-10 17:00:00 28.5 10 Noroeste 26 Norte 0 -- -- 25
2020-09-10 16:00:00 28.1 16 Norte 33 Norte 0 -- -- 25
2020-09-10 15:00:00 28.3 15 Norte 33 Noroeste 0 -- -- 26
2020-09-10 14:00:00 27.6 10 Noroeste 26 Noroeste 0 -- -- 27
2020-09-10 13:00:00 26.5 9 Noroeste 19 Noroeste 0 -- -- 31
2020-09-10 12:00:00 25.2 8 Oeste 20 Sudoeste 0 -- -- 36
2020-09-10 11:00:00 22 11 Sudoeste 20 Sudoeste 0 -- -- 46
2020-09-10 10:00:00 19.3 10 Sur 16 Sudoeste 0 -- -- 50
2020-09-10 09:00:00 17.4 7 Sur 12 Sur 0 -- -- 47
2020-09-10 08:00:00 16.1 5 Sur 10 Sur 0 -- -- 47
2020-09-10 07:00:00 17 6 Sur 8 Sudeste 0 -- -- 45
2020-09-10 06:00:00 17.7 7 Sur 8 Sur 0 -- -- 43
2020-09-10 05:00:00 17.9 0 Calma 3 Sur 0 -- -- 43
2020-09-10 04:00:00 18.3 0 Calma 6 Sudoeste 0 -- -- 43
2020-09-10 03:00:00 19.3 3 Norte 5 Nordeste 0 -- -- 40
2020-09-10 02:00:00 19.4 4 Sur 8 Sur 0 -- -- 40
2020-09-10 01:00:00 19.7 3 Nordeste 6 Este 0 -- -- 39
2020-09-10 00:00:00 20.1 7 Este 11 Nordeste 0 -- -- 39
2020-09-09 23:00:00 19.7 10 Nordeste 13 Nordeste 0 -- -- 39
2020-09-09 22:00:00 20.4 8 Nordeste 10 Nordeste 0 -- -- 37
2020-09-09 21:00:00 21.8 8 Nordeste 20 Nordeste 0 -- -- 35
2020-09-09 20:00:00 24.4 15 Nordeste 22 Nordeste 0 -- -- 32
2020-09-09 19:00:00 25.9 14 Norte 30 Norte 0 -- -- 30
2020-09-09 18:00:00 27.2 13 Nordeste 29 Nordeste 0 -- -- 30
2020-09-09 17:00:00 27.1 8 Norte 22 Oeste 0 -- -- 29
2020-09-09 16:00:00 27.8 8 Noroeste 19 Norte 0 -- -- 29
2020-09-09 15:00:00 26.6 6 Este 23 Este 0 -- -- 31
2020-09-09 14:00:00 25.3 6 Nordeste 19 Este 0 -- -- 34
2020-09-09 13:00:00 24.4 6 Norte 21 Este 0 -- -- 36
2020-09-09 12:00:00 23.1 8 Nordeste 16 Este 0 -- -- 38
2020-09-09 11:00:00 21.5 7 Este 20 Este 0 -- -- 44
2020-09-09 10:00:00 19.2 13 Este 21 Este 0 -- -- 48
2020-09-09 09:00:00 16.3 7 Sudeste 13 Este 0 -- -- 55
2020-09-09 08:00:00 13.3 9 Sudeste 13 Este 0 -- -- 64
2020-09-09 07:00:00 13.7 9 Sudeste 21 Sudeste 0 -- -- 66
2020-09-09 06:00:00 14.1 16 Este 24 Este 0 -- -- 68
2020-09-09 05:00:00 14.7 18 Este 24 Este 0 -- -- 68
2020-09-09 04:00:00 14.8 10 Este 18 Sudeste 0 -- -- 67
2020-09-09 03:00:00 15.2 9 Sudeste 18 Sur 0 -- -- 67
2020-09-09 02:00:00 15.4 7 Sudeste 13 Sudeste 0 -- -- 65
2020-09-09 01:00:00 16.9 8 Sudeste 19 Sudeste 0 -- -- 59
2020-09-09 00:00:00 17.2 9 Sudeste 25 Este 0 -- -- 58
2020-09-08 23:00:00 18.5 15 Sudeste 35 Sudeste 0 -- -- 53
2020-09-08 22:00:00 19.9 22 Sudeste 36 Sudeste 0 -- -- 47
2020-09-08 21:00:00 21.5 18 Sudeste 37 Este 0 -- -- 40
2020-09-08 20:00:00 23.9 32 Este 41 Este 0 -- -- 34
2020-09-08 19:00:00 25.5 9 Este 23 Este 0 -- -- 33
2020-09-08 18:00:00 26.1 14 Este 27 Este 0 -- -- 32
2020-09-08 17:00:00 29.1 7 Sur 21 Sur 0 -- -- 28
2020-09-08 16:00:00 27.6 7 Sur 19 Sudeste 0 -- -- 32
2020-09-08 15:00:00 27.2 9 Sur 18 Sudeste 0 -- -- 34
2020-09-08 14:00:00 26.6 10 Sudoeste 21 Sur 0 -- -- 34
2020-09-08 13:00:00 24.6 9 Sudoeste 21 Sudoeste 0 -- -- 40
2020-09-08 12:00:00 22.9 7 Sur 23 Sudeste 0 -- -- 47
2020-09-08 11:00:00 20.7 10 Sudeste 24 Sudeste 0 -- -- 54
2020-09-08 10:00:00 17.5 17 Sudeste 36 Este 0 -- -- 66
2020-09-08 09:00:00 13.8 26 Este 35 Este 0 -- -- 77
2020-09-08 08:00:00 12.7 21 Este 31 Este 0 -- -- 77
2020-09-08 07:00:00 13 24 Este 30 Este 0 -- -- 76
2020-09-08 06:00:00 13.3 22 Este 33 Este 0 -- -- 78
2020-09-08 05:00:00 13.8 24 Este 35 Este 0 -- -- 77
2020-09-08 04:00:00 14.6 27 Este 36 Este 0 -- -- 76
2020-09-08 03:00:00 14.8 29 Este 49 Este 0 -- -- 75
2020-09-08 02:00:00 15.4 28 Este 35 Este 0 -- -- 73
2020-09-08 01:00:00 15.9 28 Este 36 Este 0 -- -- 68
2020-09-08 00:00:00 17 23 Este 31 Este 0 -- -- 54
2020-09-07 23:00:00 18.6 5 Nordeste 18 Nordeste 0 -- -- 32
2020-09-07 22:00:00 18.2 11 Nordeste 15 Nordeste 0 -- -- 30
2020-09-07 21:00:00 20.5 9 Nordeste 19 Nordeste 0 -- -- 25
2020-09-07 20:00:00 23.8 16 Norte 26 Norte 0 -- -- 22
2020-09-07 19:00:00 24.9 21 Norte 32 Norte 0 -- -- 26
2020-09-07 18:00:00 26.3 16 Norte 32 Nordeste 0 -- -- 26
2020-09-07 17:00:00 26.8 18 Norte 31 Norte 0 -- -- 27
2020-09-07 16:00:00 25.8 18 Norte 33 Norte 0 -- -- 29
2020-09-07 15:00:00 27 18 Norte 29 Norte 0 -- -- 32
2020-09-07 14:00:00 26.4 14 Nordeste 25 Norte 0 -- -- 37
2020-09-07 13:00:00 26.1 15 Nordeste 23 Norte 0 -- -- 33
2020-09-07 12:00:00 24.7 11 Nordeste 18 Nordeste 0 -- -- 41
2020-09-07 11:00:00 22.4 3 Oeste 10 Sudoeste 0 -- -- 51
2020-09-07 10:00:00 20.1 7 Sur 15 Sur 0 -- -- 63
2020-09-07 09:00:00 18.1 5 Sur 13 Sur 0 -- -- 67
2020-09-07 08:00:00 16.2 8 Sur 12 Sur 0 -- -- 70
2020-09-07 07:00:00 16.8 6 Sur 15 Sur 0 -- -- 64
2020-09-07 06:00:00 18.1 10 Sur 15 Sur 0 -- -- 57
2020-09-07 05:00:00 18.3 6 Sur 14 Sur 0 -- -- 50
2020-09-07 04:00:00 20.1 8 Sur 15 Norte 0 -- -- 47
2020-09-07 03:00:00 20.5 5 Sur 10 Sudeste 0 -- -- 47
2020-09-07 02:00:00 21.1 4 Sur 10 Sur 0 -- -- 46
2020-09-07 01:00:00 21.3 7 Sur 11 Sur 0 -- -- 42
2020-09-07 00:00:00 22 8 Sudeste 20 Este 0 -- -- 40
2020-09-06 23:00:00 23 12 Sudeste 23 Este 0 -- -- 38
2020-09-06 22:00:00 24.6 18 Este 28 Este 0 -- -- 33
2020-09-06 21:00:00 26.9 22 Este 29 Este 0 -- -- 31
2020-09-06 20:00:00 28.7 11 Norte 24 Nordeste 0 -- -- 29
2020-09-06 19:00:00 31.3 9 Norte 22 Noroeste 0 -- -- 26
2020-09-06 18:00:00 31.8 7 Nordeste 21 Norte 0 -- -- 24
2020-09-06 17:00:00 32.8 14 Noroeste 23 Noroeste 0 -- -- 22
2020-09-06 16:00:00 32.8 5 Este 17 Sudoeste 0 -- -- 23
2020-09-06 15:00:00 31.9 4 Este 14 Sur 0 -- -- 26
2020-09-06 14:00:00 30.7 5 Este 16 Noroeste 0 -- -- 28
2020-09-06 13:00:00 29.4 4 Oeste 13 Este 0 -- -- 34
2020-09-06 12:00:00 26.7 3 Norte 10 Oeste 0 -- -- 41
2020-09-06 11:00:00 24.1 7 Sudoeste 13 Sudoeste 0 -- -- 47
2020-09-06 10:00:00 21.1 4 Sur 8 Este 0 -- -- 44
2020-09-06 09:00:00 19 5 Este 19 Este 0 -- -- 54
2020-09-06 08:00:00 16.9 13 Este 22 Este 0 -- -- 62
2020-09-06 07:00:00 17.4 9 Sudeste 18 Este 0 -- -- 64
2020-09-06 06:00:00 17.9 5 Sudeste 10 Sudeste 0 -- -- 62
2020-09-06 05:00:00 17.5 6 Sudeste 9 Sudeste 0 -- -- 63
2020-09-06 04:00:00 18.8 4 Sudeste 17 Sudeste 0 -- -- 59
2020-09-06 03:00:00 19.4 10 Sudeste 20 Este 0 -- -- 56
2020-09-06 02:00:00 19.3 11 Sudeste 23 Sudeste 0 -- -- 55
2020-09-06 01:00:00 20.2 7 Sudeste 16 Sudeste 0 -- -- 49
2020-09-06 00:00:00 21.2 5 Sudeste 15 Sudeste 0 -- -- 45
2020-09-05 23:00:00 22.2 9 Sudeste 17 Sudeste 0 -- -- 41
2020-09-05 22:00:00 24.6 11 Sudeste 27 Este 0 -- -- 36
2020-09-05 21:00:00 26.6 21 Este 36 Este 0 -- -- 31
2020-09-05 20:00:00 29.5 19 Este 27 Este 0 -- -- 27
2020-09-05 19:00:00 31.1 12 Norte 23 Nordeste 0 -- -- 26
2020-09-05 18:00:00 33.3 9 Sudoeste 17 Oeste 0 -- -- 23
2020-09-05 17:00:00 32.2 8 Nordeste 39 Sudoeste 0 -- -- 24
2020-09-05 16:00:00 32.2 7 Sudeste 18 Oeste 0 -- -- 25
2020-09-05 15:00:00 31 9 Oeste 16 Sudoeste 0 -- -- 26
2020-09-05 14:00:00 29.4 3 Oeste 17 Este 0 -- -- 28
2020-09-05 13:00:00 28.3 6 Oeste 10 Noroeste 0 -- -- 32
2020-09-05 12:00:00 25.9 5 Oeste 14 Oeste 0 -- -- 38
2020-09-05 11:00:00 23.3 8 Sudoeste 19 Sudoeste 0 -- -- 46
2020-09-05 10:00:00 20.4 9 Sur 15 Sur 0 -- -- 56
2020-09-05 09:00:00 17.9 7 Sudeste 12 Sur 0 -- -- 69
2020-09-05 08:00:00 15.1 5 Sur 10 Sur 0 -- -- 76
2020-09-05 07:00:00 15.3 6 Sur 11 Sur 0 -- -- 73
2020-09-05 06:00:00 15.8 7 Sur 11 Sur 0 -- -- 71
2020-09-05 05:00:00 16.5 4 Sur 10 Sudeste 0 -- -- 69
2020-09-05 04:00:00 17.3 6 Sur 15 Sur 0 -- -- 66
2020-09-05 03:00:00 17.4 6 Sur 14 Sudeste 0 -- -- 63
2020-09-05 02:00:00 17.3 6 Sur 12 Sudeste 0 -- -- 58
2020-09-05 01:00:00 18.6 6 Sur 14 Sudeste 0 -- -- 54
2020-09-05 00:00:00 19.8 8 Sudeste 21 Este 0 -- -- 52
2020-09-04 23:00:00 21.1 18 Este 23 Sudeste 0 -- -- 48
2020-09-04 22:00:00 23.3 13 Sudeste 26 Este 0 -- -- 43
2020-09-04 21:00:00 26 17 Sudeste 28 Este 0 -- -- 36
2020-09-04 20:00:00 31.2 3 Oeste 11 Sudoeste 0 -- -- 17
2020-09-04 19:00:00 31.5 6 Sudoeste 15 Sudoeste 0 -- -- 18
2020-09-04 18:00:00 31.6 5 Este 14 Sudoeste 0 -- -- 19
2020-09-04 17:00:00 32.2 6 Sur 18 Sudoeste 0 -- -- 19
2020-09-04 16:00:00 31.6 5 Sur 19 Sur 0 -- -- 20
2020-09-04 15:00:00 30.8 8 Sudoeste 22 Sudoeste 0 -- -- 21
2020-09-04 14:00:00 29.8 8 Sur 22 Sudeste 0 -- -- 22
2020-09-04 13:00:00 28 7 Sur 21 Sudeste 0 -- -- 24
2020-09-04 12:00:00 26.1 10 Sudeste 21 Sudeste 0 -- -- 29
2020-09-04 11:00:00 24.1 10 Sudeste 24 Sudeste 0 -- -- 34
2020-09-04 10:00:00 21.2 11 Sudeste 21 Este 0 -- -- 43
2020-09-04 09:00:00 17 15 Este 28 Este 0 -- -- 63
2020-09-04 08:00:00 16.3 13 Este 17 Este 0 -- -- 61
2020-09-04 07:00:00 16.3 9 Sudeste 16 Sudeste 0 -- -- 61
2020-09-04 06:00:00 16.5 10 Sudeste 15 Sudeste 0 -- -- 61
2020-09-04 05:00:00 16.6 10 Sudeste 16 Sudeste 0 -- -- 62
2020-09-04 04:00:00 16.6 7 Sudeste 15 Sudeste 0 -- -- 60
2020-09-04 03:00:00 16.9 8 Sudeste 14 Sudeste 0 -- -- 58
2020-09-04 02:00:00 17.3 8 Sudeste 12 Este 0 -- -- 57
2020-09-04 01:00:00 18 7 Sudeste 11 Sudeste 0 -- -- 54
2020-09-04 00:00:00 19.5 6 Sur 21 Sudeste 0 -- -- 50
2020-09-03 23:00:00 21.5 12 Sudeste 29 Este 0 -- -- 47
2020-09-03 22:00:00 23.1 20 Sudeste 33 Sudeste 0 -- -- 42
2020-09-03 21:00:00 25.3 21 Sudeste 41 Este 0 -- -- 35
2020-09-03 20:00:00 28.3 26 Este 34 Este 0 -- -- 29
2020-09-03 19:00:00 30.3 9 Sudeste 28 Este 0 -- -- 23
2020-09-03 18:00:00 30.5 10 Nordeste 21 Nordeste 0 -- -- 23
2020-09-03 17:00:00 30.9 5 Este 28 Nordeste 0 -- -- 23
2020-09-03 16:00:00 30.6 9 Nordeste 24 Este 0 -- -- 23
2020-09-03 15:00:00 30.2 7 Oeste 19 Sudoeste 0 -- -- 26
2020-09-03 14:00:00 29.3 10 Sudoeste 21 Sur 0 -- -- 28
2020-09-03 13:00:00 28.2 4 Sudeste 17 Sur 0 -- -- 29
2020-09-03 12:00:00 26.4 4 Sudoeste 14 Sudoeste 0 -- -- 36
2020-09-03 11:00:00 23 6 Sudoeste 14 Sur 0 -- -- 45
2020-09-03 10:00:00 20.2 8 Sur 13 Sur 0 -- -- 56
2020-09-03 09:00:00 17.6 5 Sur 11 Sur 0 -- -- 64
2020-09-03 08:00:00 14.9 5 Sur 8 Sur 0 -- -- 69
2020-09-03 07:00:00 14.9 5 Sur 10 Sur 0 -- -- 68
2020-09-03 06:00:00 15.3 6 Sur 10 Sudeste 0 -- -- 66
2020-09-03 05:00:00 15.9 4 Sur 11 Sur 0 -- -- 64
2020-09-03 04:00:00 16.3 5 Sur 12 Sur 0 -- -- 64
2020-09-03 03:00:00 16.4 6 Sur 10 Sur 0 -- -- 61
2020-09-03 02:00:00 17.5 6 Sur 11 Sudeste 0 -- -- 56
2020-09-03 01:00:00 18.4 4 Sudeste 13 Sudeste 0 -- -- 54
2020-09-03 00:00:00 19.1 8 Sudeste 15 Este 0 -- -- 53
2020-09-02 23:00:00 20.3 10 Sudeste 22 Este 0 -- -- 49
2020-09-02 22:00:00 21.1 12 Nordeste 13 Nordeste 0 -- -- 32
2020-09-02 21:00:00 23.4 9 Nordeste 18 Nordeste 0 -- -- 28
2020-09-02 20:00:00 26.1 13 Nordeste 27 Nordeste 0 -- -- 25
2020-09-02 19:00:00 27.4 14 Nordeste 28 Nordeste 0 -- -- 23
2020-09-02 18:00:00 28.3 13 Norte 28 Norte 0 -- -- 23
2020-09-02 17:00:00 26.7 5 Nordeste 22 Este 0 -- -- 24
2020-09-02 16:00:00 29.2 8 Nordeste 21 Oeste 0 -- -- 22
2020-09-02 15:00:00 26.4 12 Este 24 Este 0 -- -- 24
2020-09-02 14:00:00 27.6 8 Norte 20 Nordeste 0 -- -- 25
2020-09-02 13:00:00 26.9 5 Sur 13 Sudeste 0 -- -- 27
2020-09-02 12:00:00 24.8 5 Oeste 17 Sudoeste 0 -- -- 33
2020-09-02 11:00:00 21.9 7 Sur 15 Sur 0 -- -- 40
2020-09-02 10:00:00 18.9 8 Sur 17 Sur 0 -- -- 48
2020-09-02 09:00:00 16 8 Sur 13 Sudeste 0 -- -- 54
2020-09-02 08:00:00 13.4 5 Sur 10 Sudeste 0 -- -- 60
2020-09-02 07:00:00 13.9 5 Sur 13 Sur 0 -- -- 56
2020-09-02 06:00:00 14.9 5 Sur 11 Sudoeste 0 -- -- 54
2020-09-02 05:00:00 15.6 6 Sur 10 Sur 0 -- -- 51
2020-09-02 04:00:00 16.3 5 Sur 9 Sur 0 -- -- 48
2020-09-02 03:00:00 17.3 4 Sur 9 Sur 0 -- -- 45
2020-09-02 02:00:00 18.4 6 Sur 8 Sur 0 -- -- 42
2020-09-02 01:00:00 19.5 4 Sur 8 Sur 0 -- -- 40
2020-09-02 00:00:00 20 4 Sur 8 Sur 0 -- -- 38
2020-09-01 23:00:00 20.7 5 Sur 12 Oeste 0 -- -- 37
2020-09-01 22:00:00 21.9 4 Oeste 12 Oeste 0 -- -- 34
2020-09-01 21:00:00 23.6 11 Sudoeste 15 Oeste 0 -- -- 31
2020-09-01 20:00:00 24.4 6 Norte 17 Oeste 0 -- -- 22
2020-09-01 19:00:00 25.6 8 Oeste 19 Noroeste 0 -- -- 21
2020-09-01 18:00:00 26.3 12 Noroeste 29 Oeste 0 -- -- 22
2020-09-01 17:00:00 27.4 14 Oeste 36 Sudoeste 0 -- -- 24
2020-09-01 16:00:00 28.1 10 Oeste 27 Sudoeste 0 -- -- 24
2020-09-01 15:00:00 26.4 17 Oeste 28 Sudoeste 0 -- -- 29
2020-09-01 14:00:00 24.1 5 Sur 17 Sur 0 -- -- 34
2020-09-01 13:00:00 23 7 Sudoeste 14 Sudoeste 0 -- -- 38
2020-09-01 12:00:00 21.1 9 Sudoeste 13 Sudoeste 0 -- -- 42
2020-09-01 11:00:00 19.4 6 Sur 12 Sur 0 -- -- 52
2020-09-01 10:00:00 17.5 6 Sur 12 Sur 0 -- -- 60
2020-09-01 09:00:00 14.9 4 Sur 11 Sudeste 0 -- -- 65
2020-09-01 08:00:00 13.5 4 Sur 12 Sur 0 -- -- 69
2020-09-01 07:00:00 13.3 4 Sur 9 Sur 0 -- -- 67
2020-09-01 06:00:00 13.4 5 Sur 10 Sur 0 -- -- 64
2020-09-01 05:00:00 14 5 Sur 10 Sudeste 0 -- -- 61
2020-09-01 04:00:00 15.5 8 Sur 18 Sur 0 -- -- 50
2020-09-01 03:00:00 16.6 13 Sudeste 22 Este 0 -- -- 51
2020-09-01 02:00:00 17.1 19 Este 26 Este 0 -- -- 44
2020-09-01 01:00:00 17.2 23 Este 26 Este 0 -- -- 33
2020-09-01 00:00:00 18.5 19 Este 27 Este 0 -- -- 26
2020-08-31 23:00:00 18.9 17 Este 22 Este 0 -- -- 26
2020-08-31 22:00:00 19.5 13 Nordeste 17 Nordeste 0 -- -- 24
2020-08-31 21:00:00 21.7 12 Nordeste 18 Norte 0 -- -- 22
2020-08-31 20:00:00 25.5 6 Norte 13 Norte 0 -- -- 17
2020-08-31 19:00:00 26.5 8 Norte 19 Norte 0 -- -- 16
2020-08-31 18:00:00 27 8 Nordeste 17 Norte 0 -- -- 14
2020-08-31 17:00:00 27.1 8 Norte 19 Oeste 0 -- -- 14
2020-08-31 16:00:00 27.2 6 Norte 17 Sudoeste 0 -- -- 14
2020-08-31 15:00:00 25.9 5 Norte 22 Noroeste 0 -- -- 16
2020-08-31 14:00:00 25.2 5 Nordeste 17 Oeste 0 -- -- 16
2020-08-31 13:00:00 23.9 4 Nordeste 13 Sur 0 -- -- 18
2020-08-31 12:00:00 22.4 6 Nordeste 20 Este 0 -- -- 21
2020-08-31 11:00:00 20.6 10 Este 21 Este 0 -- -- 23
2020-08-31 10:00:00 18.9 13 Este 19 Este 0 -- -- 30
2020-08-31 09:00:00 15.1 18 Este 22 Este 0 -- -- 37
2020-08-31 08:00:00 12.3 22 Este 23 Este 0 -- -- 43
2020-08-31 07:00:00 12 15 Este 19 Este 0 -- -- 41
2020-08-31 06:00:00 11.5 11 Sudeste 22 Este 0 -- -- 42
2020-08-31 05:00:00 11.3 19 Este 29 Este 0 -- -- 42
2020-08-31 04:00:00 13 24 Este 28 Este 0 -- -- 38
2020-08-31 03:00:00 13.6 19 Este 31 Este 0 -- -- 37
2020-08-31 02:00:00 14.7 18 Este 22 Este 0 -- -- 35
2020-08-31 01:00:00 14.9 15 Este 19 Nordeste 0 -- -- 35
2020-08-31 00:00:00 14.9 14 Nordeste 25 Nordeste 0 -- -- 34
2020-08-30 23:00:00 15.2 15 Nordeste 20 Nordeste 0 -- -- 34
2020-08-30 22:00:00 16.2 9 Nordeste 13 Nordeste 0 -- -- 33
2020-08-30 21:00:00 18.4 12 Norte 28 Norte 0 -- -- 31
2020-08-30 20:00:00 20.4 16 Norte 27 Norte 0 -- -- 28
2020-08-30 19:00:00 21.5 14 Norte 24 Nordeste 0 -- -- 27
2020-08-30 18:00:00 22.2 13 Norte 27 Nordeste 0 -- -- 26
2020-08-30 17:00:00 22.9 13 Norte 24 Norte 0 -- -- 26
2020-08-30 16:00:00 22.8 8 Norte 31 Nordeste 0 -- -- 26
2020-08-30 15:00:00 22.1 11 Norte 29 Norte 0 -- -- 28
2020-08-30 14:00:00 21.2 9 Norte 22 Norte 0 -- -- 30
2020-08-30 13:00:00 20.4 12 Norte 30 Nordeste 0 -- -- 33
2020-08-30 12:00:00 19.2 13 Nordeste 22 Nordeste 0 -- -- 36
2020-08-30 11:00:00 17.5 9 Norte 15 Norte 0 -- -- 42
2020-08-30 10:00:00 14.8 12 Nordeste 25 Este 0 -- -- 53
2020-08-30 09:00:00 12.2 19 Nordeste 24 Nordeste 0 -- -- 60
2020-08-30 08:00:00 9.6 10 Este 15 Este 0 -- -- 65
2020-08-30 07:00:00 9.8 9 Nordeste 16 Nordeste 0 -- -- 63
2020-08-30 06:00:00 10.7 4 Este 17 Nordeste 0 -- -- 58
2020-08-30 05:00:00 11.4 12 Nordeste 18 Nordeste 0 -- -- 56
2020-08-30 04:00:00 11.3 9 Nordeste 17 Este 0 -- -- 56
2020-08-30 03:00:00 13 13 Nordeste 21 Este 0 -- -- 51
2020-08-30 02:00:00 13.3 12 Nordeste 21 Nordeste 0 -- -- 48
2020-08-30 01:00:00 14.6 14 Nordeste 24 Nordeste 0 -- -- 45
2020-08-30 00:00:00 16 16 Nordeste 24 Norte 0 -- -- 41
2020-08-29 23:00:00 16.3 11 Norte 19 Norte 0 -- -- 36
2020-08-29 22:00:00 17.2 10 Norte 22 Norte 0 -- -- 34
2020-08-29 21:00:00 18.7 14 Norte 32 Norte 0 -- -- 33
2020-08-29 20:00:00 20.6 17 Norte 33 Norte 0 -- -- 29
2020-08-29 19:00:00 21.6 19 Norte 34 Norte 0 -- -- 29
2020-08-29 18:00:00 22.3 18 Norte 37 Noroeste 0 -- -- 27
2020-08-29 17:00:00 22.5 20 Norte 41 Norte 0 -- -- 26
2020-08-29 16:00:00 21.7 17 Norte 38 Norte 0 -- -- 31
2020-08-29 15:00:00 21.5 17 Norte 32 Norte 0 -- -- 32
2020-08-29 14:00:00 21.5 16 Norte 35 Norte 0 -- -- 33
2020-08-29 13:00:00 20.8 21 Norte 38 Nordeste 0 -- -- 36
2020-08-29 12:00:00 19.8 20 Nordeste 32 Nordeste 0 -- -- 42
2020-08-29 11:00:00 17.9 14 Norte 27 Noroeste 0 -- -- 56
2020-08-29 10:00:00 16.5 12 Noroeste 18 Norte 0 -- -- 56
2020-08-29 09:00:00 15.1 6 Noroeste 15 Noroeste 0 -- -- 52
2020-08-29 08:00:00 14 7 Noroeste 14 Noroeste 0 -- -- 51
2020-08-29 07:00:00 15.1 6 Oeste 12 Oeste 0 -- -- 47
2020-08-29 06:00:00 15.9 8 Oeste 14 Noroeste 0 -- -- 44
2020-08-29 05:00:00 16.6 8 Oeste 17 Noroeste 0 -- -- 41
2020-08-29 04:00:00 17.3 11 Oeste 21 Oeste 0 -- -- 37
2020-08-29 03:00:00 18.7 10 Noroeste 25 Oeste 0 -- -- 32
2020-08-29 02:00:00 20.1 13 Oeste 25 Noroeste 0 -- -- 28
2020-08-29 01:00:00 21.3 15 Oeste 22 Oeste 0 -- -- 31
2020-08-29 00:00:00 22.7 8 Oeste 25 Oeste 0 -- -- 38
2020-08-28 23:00:00 23.8 14 Noroeste 27 Oeste 0 -- -- 37
2020-08-28 22:00:00 25.1 15 Noroeste 32 Noroeste 0 -- -- 36
2020-08-28 21:00:00 26.5 17 Noroeste 35 Oeste 0 -- -- 32
2020-08-28 20:00:00 28.7 20 Noroeste 40 Oeste 0 -- -- 34
2020-08-28 19:00:00 30.1 24 Noroeste 45 Noroeste 0 -- -- 30
2020-08-28 18:00:00 31.2 24 Oeste 41 Oeste 0 -- -- 24
2020-08-28 17:00:00 31.7 24 Noroeste 48 Noroeste 0 -- -- 25
2020-08-28 16:00:00 32.1 23 Oeste 41 Oeste 0 -- -- 27
2020-08-28 15:00:00 32.1 21 Oeste 38 Oeste 0 -- -- 29
2020-08-28 14:00:00 31.4 22 Oeste 36 Oeste 0 -- -- 32
2020-08-28 13:00:00 30.7 13 Oeste 31 Sudoeste 0 -- -- 36
2020-08-28 12:00:00 28.8 17 Sudoeste 33 Noroeste 0 -- -- 37
2020-08-28 11:00:00 26 12 Sudoeste 24 Sudoeste 0 -- -- 42
2020-08-28 10:00:00 23.5 9 Sudoeste 18 Sur 0 -- -- 46
2020-08-28 09:00:00 21.1 9 Sur 13 Sudoeste 0 -- -- 49
2020-08-28 08:00:00 18.4 8 Sur 13 Sur 0 -- -- 50
2020-08-28 07:00:00 19 7 Sur 12 Sur 0 -- -- 44
2020-08-28 06:00:00 20.5 8 Sur 12 Sudoeste 0 -- -- 38
2020-08-28 05:00:00 22 8 Sur 15 Sudoeste 0 -- -- 35
2020-08-28 04:00:00 22.4 6 Sur 18 Sudoeste 0 -- -- 33
2020-08-28 03:00:00 24.1 9 Sudoeste 18 Sudoeste 0 -- -- 30
2020-08-28 02:00:00 24.6 10 Sudoeste 17 Sur 0 -- -- 28
2020-08-28 01:00:00 25.8 12 Sudoeste 23 Sudoeste 0 -- -- 25
2020-08-28 00:00:00 26.5 13 Sudoeste 21 Sudoeste 0 -- -- 23
2020-08-27 23:00:00 27.8 9 Sudoeste 15 Sudoeste 0 -- -- 23
2020-08-27 22:00:00 29.5 12 Sudoeste 24 Sudoeste 0 -- -- 22
2020-08-27 21:00:00 31.6 18 Sudoeste 30 Sudoeste 0 -- -- 21
2020-08-27 20:00:00 34.5 23 Sudoeste 33 Sudoeste 0 -- -- 19
2020-08-27 19:00:00 36.7 11 Oeste 27 Sudoeste 0 -- -- 16
2020-08-27 18:00:00 36.9 10 Noroeste 22 Sudoeste 0 -- -- 15
2020-08-27 17:00:00 37 10 Noroeste 24 Oeste 0 -- -- 16
2020-08-27 16:00:00 37 9 Oeste 23 Oeste 0 -- -- 17
2020-08-27 15:00:00 36.4 9 Sudoeste 25 Sudoeste 0 -- -- 18
2020-08-27 14:00:00 35 12 Oeste 25 Oeste 0 -- -- 19
2020-08-27 13:00:00 33.6 17 Oeste 27 Oeste 0 -- -- 21
2020-08-27 12:00:00 32.3 9 Sudoeste 16 Sudoeste 0 -- -- 25
2020-08-27 11:00:00 28.9 9 Sudoeste 15 Sudoeste 0 -- -- 33
2020-08-27 10:00:00 26 8 Sur 13 Sur 0 -- -- 41
2020-08-27 09:00:00 23.3 7 Sur 12 Sur 0 -- -- 43
2020-08-27 08:00:00 20.4 8 Sur 13 Sur 0 -- -- 44
2020-08-27 07:00:00 21 6 Sur 12 Sur 0 -- -- 39
2020-08-27 06:00:00 22 7 Sur 10 Sur 0 -- -- 36
2020-08-27 05:00:00 23 7 Sur 10 Sur 0 -- -- 34
2020-08-27 04:00:00 23.6 7 Sur 10 Sur 0 -- -- 33
2020-08-27 03:00:00 23.6 7 Sur 9 Sur 0 -- -- 32
2020-08-27 02:00:00 24.7 6 Sur 12 Sudeste 0 -- -- 31
2020-08-27 01:00:00 26.6 6 Noroeste 10 Noroeste 0 -- -- 27
2020-08-27 00:00:00 27.8 6 Noroeste 11 Noroeste 0 -- -- 27
2020-08-26 23:00:00 29.2 8 Noroeste 19 Sudoeste 0 -- -- 26
2020-08-26 22:00:00 30.6 11 Oeste 21 Oeste 0 -- -- 26
2020-08-26 21:00:00 32.8 6 Noroeste 18 Noroeste 0 -- -- 21
2020-08-26 20:00:00 35.1 8 Noroeste 19 Oeste 0 -- -- 19
2020-08-26 19:00:00 36.2 12 Oeste 26 Oeste 0 -- -- 20
2020-08-26 18:00:00 37.1 8 Noroeste 26 Oeste 0 -- -- 20
2020-08-26 17:00:00 36.3 5 Este 21 Oeste 0 -- -- 23
2020-08-26 16:00:00 36.7 7 Sudoeste 23 Oeste 0 -- -- 23
2020-08-26 15:00:00 36 7 Sudoeste 23 Sudoeste 0 -- -- 24
2020-08-26 14:00:00 34.4 7 Noroeste 19 Oeste 0 -- -- 26
2020-08-26 13:00:00 33.5 9 Oeste 19 Oeste 0 -- -- 26
2020-08-26 12:00:00 31.3 8 Sudoeste 19 Sudoeste 0 -- -- 31
2020-08-26 11:00:00 28 11 Sudoeste 22 Sudoeste 0 -- -- 41
2020-08-26 10:00:00 25.3 11 Sur 19 Sur 0 -- -- 49
2020-08-26 09:00:00 22.8 7 Sur 16 Sur 0 -- -- 51
2020-08-26 08:00:00 19.6 7 Sur 12 Sur 0 -- -- 55
2020-08-26 07:00:00 20 6 Sur 13 Sur 0 -- -- 49
2020-08-26 06:00:00 20.3 6 Sur 13 Sur 0 -- -- 45
2020-08-26 05:00:00 21.2 10 Sur 17 Sur 0 -- -- 41
2020-08-26 04:00:00 21.6 6 Sur 14 Sur 0 -- -- 38
2020-08-26 03:00:00 22.4 9 Sur 15 Sur 0 -- -- 36
2020-08-26 02:00:00 22.9 6 Sur 13 Sudeste 0 -- -- 35
2020-08-26 01:00:00 24.2 10 Sur 14 Sur 0 -- -- 30
2020-08-26 00:00:00 26.6 4 Sur 9 Nordeste 0 -- -- 25
2020-08-25 23:00:00 26.5 5 Nordeste 13 Sudoeste 0 -- -- 26
2020-08-25 22:00:00 29 5 Sudoeste 16 Sudoeste 0 -- -- 22
2020-08-25 21:00:00 32 4 Sudoeste 14 Sudoeste 0 -- -- 22
2020-08-25 20:00:00 35.3 5 Sur 18 Sudoeste 0 -- -- 19
2020-08-25 19:00:00 36.5 8 Sur 23 Sudoeste 0 -- -- 19
2020-08-25 18:00:00 36.6 9 Oeste 25 Sudoeste 0 -- -- 19
2020-08-25 17:00:00 36.6 7 Sudoeste 25 Sudoeste 0 -- -- 20
2020-08-25 16:00:00 35.5 9 Oeste 22 Sudoeste 0 -- -- 23
2020-08-25 15:00:00 34.6 5 Sur 24 Sudoeste 0 -- -- 26
2020-08-25 14:00:00 33.3 6 Sudoeste 26 Noroeste 0 -- -- 28
2020-08-25 13:00:00 31.6 8 Oeste 17 Oeste 0 -- -- 32
2020-08-25 12:00:00 29.8 8 Oeste 17 Sudoeste 0 -- -- 36
2020-08-25 11:00:00 26.8 10 Sudoeste 21 Sudoeste 0 -- -- 46
2020-08-25 10:00:00 23.8 14 Sur 20 Sur 0 -- -- 57
2020-08-25 09:00:00 21.5 8 Sur 17 Sudeste 0 -- -- 66
2020-08-25 08:00:00 18.7 6 Sur 18 Sur 0 -- -- 70
2020-08-25 07:00:00 18.6 5 Sur 17 Sur 0 -- -- 62
2020-08-25 06:00:00 18.6 6 Sur 20 Sur 0 -- -- 58
2020-08-25 05:00:00 19.3 6 Sur 14 Sur 0 -- -- 49
2020-08-25 04:00:00 19.9 7 Sur 17 Sur 0 -- -- 43
2020-08-25 03:00:00 20.4 9 Sur 15 Sudoeste 0 -- -- 39
2020-08-25 02:00:00 21.3 5 Sur 12 Sudeste 0 -- -- 35
2020-08-25 01:00:00 22.9 9 Sur 14 Sur 0 -- -- 38
2020-08-25 00:00:00 24.5 6 Sudeste 19 Este 0 -- -- 44
2020-08-24 23:00:00 26 14 Este 18 Este 0 -- -- 39
2020-08-24 22:00:00 28 11 Este 16 Este 0 -- -- 21
2020-08-24 21:00:00 30.3 5 Noroeste 13 Oeste 0 -- -- 18
2020-08-24 20:00:00 32.9 7 Oeste 16 Norte 0 -- -- 17
2020-08-24 19:00:00 35.3 5 Sudoeste 22 Oeste 0 -- -- 16
2020-08-24 18:00:00 35.7 4 Sur 23 Sudoeste 0 -- -- 17
2020-08-24 17:00:00 35 6 Sudoeste 25 Oeste 0 -- -- 16
2020-08-24 16:00:00 34.6 13 Sudoeste 28 Sudoeste 0 -- -- 17
2020-08-24 15:00:00 34.2 13 Sudoeste 30 Oeste 0 -- -- 17
2020-08-24 14:00:00 32.4 9 Noroeste 21 Sudoeste 0 -- -- 18
2020-08-24 13:00:00 31.5 10 Sudoeste 22 Sudoeste 0 -- -- 24
2020-08-24 12:00:00 28.9 12 Sudoeste 27 Sudoeste 0 -- -- 28
2020-08-24 11:00:00 26 13 Sudoeste 28 Sudoeste 0 -- -- 33
2020-08-24 10:00:00 23.2 15 Sur 26 Sur 0 -- -- 41
2020-08-24 09:00:00 20.9 8 Sur 17 Sur 0 -- -- 54
2020-08-24 08:00:00 17.4 4 Sur 11 Sur 0 -- -- 69
2020-08-24 07:00:00 17 4 Sur 13 Sudeste 0 -- -- 49
2020-08-24 06:00:00 17.3 8 Sur 13 Sur 0 -- -- 42
2020-08-24 05:00:00 18.2 8 Sur 12 Sur 0 -- -- 48
2020-08-24 04:00:00 20.2 6 Sudoeste 11 Sur 0 -- -- 49
2020-08-24 03:00:00 21.9 7 Sur 9 Sur 0 -- -- 57
2020-08-24 02:00:00 23.6 4 Noroeste 8 Oeste 0 -- -- 41
2020-08-24 01:00:00 23.9 5 Sudoeste 18 Oeste 0 -- -- 56
2020-08-24 00:00:00 24.3 8 Este 16 Este 0 -- -- 57
2020-08-23 23:00:00 25.7 13 Este 17 Este 0 -- -- 53
2020-08-23 22:00:00 26.9 13 Este 19 Nordeste 0 -- -- 34
2020-08-23 21:00:00 29.4 13 Nordeste 19 Norte 0 -- -- 26
2020-08-23 20:00:00 32.8 7 Norte 20 Oeste 0 -- -- 21
2020-08-23 19:00:00 34.3 11 Oeste 21 Oeste 0 -- -- 19
2020-08-23 18:00:00 34.4 9 Norte 20 Noroeste 0 -- -- 20
2020-08-23 17:00:00 34.2 6 Oeste 23 Oeste 0 -- -- 20
2020-08-23 16:00:00 34 12 Noroeste 23 Noroeste 0 -- -- 20
2020-08-23 15:00:00 33.3 7 Noroeste 22 Noroeste 0 -- -- 20
2020-08-23 14:00:00 32.7 14 Sudoeste 23 Sudoeste 0 -- -- 21
2020-08-23 13:00:00 31.6 8 Norte 15 Oeste 0 -- -- 24
2020-08-23 12:00:00 29.8 6 Noroeste 12 Norte 0 -- -- 23
2020-08-23 11:00:00 27.3 5 Nordeste 8 Nordeste 0 -- -- 25
2020-08-23 10:00:00 24.9 2 Sudeste 5 Sur 0 -- -- 26
2020-08-23 09:00:00 22 4 Sur 8 Sudeste 0 -- -- 31
2020-08-23 08:00:00 19.2 5 Sur 8 Sudeste 0 -- -- 37
2020-08-23 07:00:00 19.9 2 Sur 6 Sur 0 -- -- 34
2020-08-23 06:00:00 20.7 3 Nordeste 10 Norte 0 -- -- 32
2020-08-23 05:00:00 21.2 6 Norte 8 Norte 0 -- -- 36
2020-08-23 04:00:00 22.3 6 Norte 9 Norte 0 -- -- 34
2020-08-23 03:00:00 22.1 5 Norte 10 Norte 0 -- -- 35
2020-08-23 02:00:00 23 5 Norte 8 Noroeste 0 -- -- 34
2020-08-23 01:00:00 24.3 5 Noroeste 7 Noroeste 0 -- -- 33
2020-08-23 00:00:00 25.2 4 Norte 13 Noroeste 0 -- -- 33
2020-08-22 23:00:00 26.8 5 Norte 14 Norte 0 -- -- 34
2020-08-22 22:00:00 27.5 7 Norte 14 Norte 0 -- -- 34
2020-08-22 21:00:00 29.9 9 Norte 21 Noroeste 0 -- -- 32
2020-08-22 20:00:00 32.4 9 Norte 23 Norte 0 -- -- 31
2020-08-22 19:00:00 34 8 Noroeste 23 Noroeste 0 -- -- 30
2020-08-22 18:00:00 34.3 10 Oeste 24 Oeste 0 -- -- 30
2020-08-22 17:00:00 33.6 10 Norte 23 Noroeste 0 -- -- 30
2020-08-22 16:00:00 33.5 5 Noroeste 19 Noroeste 0 -- -- 32
2020-08-22 15:00:00 32 6 Norte 22 Oeste 0 -- -- 35
2020-08-22 14:00:00 31.2 9 Oeste 18 Oeste 0 -- -- 36
2020-08-22 13:00:00 29.9 7 Noroeste 15 Noroeste 0 -- -- 40
2020-08-22 12:00:00 28.3 6 Noroeste 10 Oeste 0 -- -- 44
2020-08-22 11:00:00 26.3 4 Este 11 Nordeste 0 -- -- 52
2020-08-22 10:00:00 24.1 7 Nordeste 12 Norte 0 -- -- 57
2020-08-22 09:00:00 22.8 5 Este 9 Este 0 -- -- 61
2020-08-22 08:00:00 20.6 6 Este 7 Este 0 -- -- 66
2020-08-22 07:00:00 20.4 6 Nordeste 9 Este 0 -- -- 68
2020-08-22 06:00:00 20.3 6 Nordeste 12 Nordeste 0 -- -- 68
2020-08-22 05:00:00 20.1 10 Nordeste 13 Nordeste 0 -- -- 65
2020-08-22 04:00:00 21.5 7 Nordeste 10 Este 0 -- -- 44
2020-08-22 03:00:00 22.6 4 Noroeste 9 Sudeste 0 -- -- 34
2020-08-22 02:00:00 22.6 7 Sudeste 9 Sudeste 0 -- -- 27
2020-08-22 01:00:00 24.5 5 Sur 7 Sudeste 0 -- -- 25
2020-08-22 00:00:00 26.1 5 Oeste 10 Oeste 0 -- -- 25
2020-08-21 23:00:00 27 5 Sudoeste 9 Oeste 0 -- -- 25
2020-08-21 22:00:00 28.7 4 Oeste 12 Noroeste 0 -- -- 29
2020-08-21 21:00:00 31 6 Noroeste 28 Sudoeste 0 -- -- 24
2020-08-21 20:00:00 33.6 19 Sudoeste 37 Oeste 0 -- -- 13
2020-08-21 19:00:00 34.6 21 Oeste 40 Oeste 0 -- -- 12
2020-08-21 18:00:00 35.2 24 Oeste 39 Oeste 0 -- -- 12
2020-08-21 17:00:00 35.5 22 Sudoeste 40 Sudoeste 0 -- -- 12
2020-08-21 16:00:00 35.1 22 Oeste 38 Oeste 0 -- -- 13
2020-08-21 15:00:00 34.5 15 Sudoeste 32 Sudoeste 0 -- -- 15
2020-08-21 14:00:00 32.9 14 Oeste 32 Sudoeste 0 -- -- 18
2020-08-21 13:00:00 31.6 12 Sudoeste 26 Sudoeste 0 -- -- 21
2020-08-21 12:00:00 29.4 12 Sudoeste 21 Sudoeste 0 -- -- 22
2020-08-21 11:00:00 26.2 9 Sudoeste 16 Sudoeste 0 -- -- 23
2020-08-21 10:00:00 23.3 7 Sur 13 Sur 0 -- -- 28
2020-08-21 09:00:00 21 6 Sur 11 Sur 0 -- -- 31
2020-08-21 08:00:00 17.4 8 Sur 12 Sur 0 -- -- 37
2020-08-21 07:00:00 17.5 7 Sur 10 Sudeste 0 -- -- 35
2020-08-21 06:00:00 18.1 6 Sur 9 Sudeste 0 -- -- 34
2020-08-21 05:00:00 19.2 8 Sur 10 Sur 0 -- -- 34
2020-08-21 04:00:00 20.7 7 Sur 10 Sudoeste 0 -- -- 34
2020-08-21 03:00:00 21.9 6 Sudoeste 11 Sur 0 -- -- 35
2020-08-21 02:00:00 23.1 7 Sudoeste 12 Sur 0 -- -- 33
2020-08-21 01:00:00 23.9 9 Sur 19 Sudoeste 0 -- -- 30
2020-08-21 00:00:00 26.2 14 Sudoeste 22 Sudoeste 0 -- -- 27
2020-08-20 23:00:00 27.4 16 Sudoeste 22 Sudoeste 0 -- -- 25
2020-08-20 22:00:00 28.7 12 Oeste 21 Oeste 0 -- -- 21
2020-08-20 21:00:00 30.9 15 Oeste 35 Oeste 0 -- -- 20
2020-08-20 20:00:00 33.3 26 Oeste 42 Sudoeste 0 -- -- 19
2020-08-20 19:00:00 34.8 24 Sudoeste 45 Sudoeste 0 -- -- 21
2020-08-20 18:00:00 35.4 29 Sudoeste 44 Sudoeste 0 -- -- 20
2020-08-20 17:00:00 35.6 17 Oeste 38 Sudoeste 0 -- -- 18
2020-08-20 16:00:00 35.2 23 Sudoeste 35 Sudoeste 0 -- -- 18
2020-08-20 15:00:00 34.4 15 Oeste 29 Sudoeste 0 -- -- 23
2020-08-20 14:00:00 33.5 12 Sudoeste 28 Sudoeste 0 -- -- 25
2020-08-20 13:00:00 32.3 13 Sudoeste 30 Sudoeste 0 -- -- 26
2020-08-20 12:00:00 30.7 6 Sur 16 Sur 0 -- -- 27
2020-08-20 11:00:00 27 7 Sur 18 Sur 0 -- -- 31
2020-08-20 10:00:00 23.8 10 Sur 18 Sur 0 -- -- 43
2020-08-20 09:00:00 21.3 6 Sudeste 11 Sur 0 -- -- 49
2020-08-20 08:00:00 18.4 6 Sudeste 12 Sur 0 -- -- 54
2020-08-20 07:00:00 19.4 7 Sur 9 Sur 0 -- -- 50
2020-08-20 06:00:00 19.3 7 Sur 12 Sudeste 0 -- -- 50
2020-08-20 05:00:00 20.6 7 Sur 10 Sudeste 0 -- -- 44
2020-08-20 04:00:00 22.4 5 Sur 7 Sur 0 -- -- 41
2020-08-20 03:00:00 23.3 2 Sur 5 Oeste 0 -- -- 39
2020-08-20 02:00:00 24.3 4 Sur 7 Este 0 -- -- 38
2020-08-20 01:00:00 25.1 4 Sudoeste 6 Sudoeste 0 -- -- 37
2020-08-20 00:00:00 26.1 3 Noroeste 8 Oeste 0 -- -- 35